Impacts TAF Board
For situational awareness. Not to be used for flight planning purposes.
IDs:

KSLC - Salt Lake City Intl, UT, US

Issued at 1125 UTC 17 Dec 2018
Updated at 1214 UTC 17 Dec 2018
Potential Impact None Slight Moderate High
Time<<18/13Z 18/14Z 18/15Z 18/16Z 18/17Z 18/18Z 18/19Z 18/20Z 18/21Z 18/22Z 18/23Z 19/00Z 19/01Z
Type PRVL PRVL PRVL PRVL PRVL
VIS >6 >6 >6 >6 >6
CIG 50 50 50 50 50
Cover BKN BKN BKN BKN BKN
FltCat VFR VFR VFR VFR VFR
WX -- -- -- -- --
WDir 170 170 170 170 170
WSpd 4 4 4 4 4
WGst -- -- -- -- --
Raw TAF
KSLC 171125Z 1712/1818 15004KT P6SM BKN200
  FM171900 34004KT P6SM SCT100 OVC120
  FM172200 28005KT P6SM VCSH SCT050 OVC080
  FM180100 17004KT P6SM BKN050


METAR Board
Radar Display
Forecast Discussion
For situational awareness. Not to be used for flight planning purposes.